Country
Station

 

Weather  for  Fort Collins Automatic Weather Observing/Reporting System  -  United States    United States

  
-1 °C (30 °F)
    
 
 

Current METAR for Fort Collins Automatic Weather Observing/Reporting System is :

KFNL 181356Z AUTO 36004KT 10SM CLR M01/M01 A3027 RMK AO2 SLP251 T10061011 FZRANO PNO $

 

This is a report for Fort Collins Automatic Weather Observing/Reporting System - United States.
 
The report was made one hour and 1 minutes ago, at 13:56 UTC .
The wind was blowing at a speed of 2.1 meters per second (4.6 miles per hour) from north (360°).
 
The temperature was -1 °C (30 °F), with a dew-point at -1 °C (30 °F).
The temperature felt like -4 °C (25 °F).
 
The atmospheric pressure was 1025 hPa (30.27 inHg).
The relative humidity was 100.0%.
 
The sky was clear.
 
The overall visibility was 16.1 kilometers (10.0 miles).
 

 
 
 
 

Country :   A   B   C   D   E   F   G   H   I   J   K   L   M   N   O   P   Q   R   S   T   U   V   W   Y   Z

 

Site Info  |  Disclaimer  |  Credits  |  Privacy
Contact us  |  Add to favorites
© 2013-2018 METARs - All rights reserved